Time;durP1;ratioP1;P1;durP2;ratioP2;P2;SDS_P1;SDS_P2;PMS_P1;PMS_P2;Temp;Humidity;BMP_temperature;BMP_pressure;BME280_temperature;BME280_humidity;BME280_pressure;Samples;Min_cycle;Max_cycle;Signal;HPM_P1;HPM_P2
2023/09/30 00:00:01;;;;;;;10.30;5.00;;;;;;;20.73;29.75;100911.63;108074;1288;21994;-65
2023/09/30 00:02:27;;;;;;;10.90;5.20;;;;;;;20.69;29.71;100911.95;108159;1283;22027;-60
2023/09/30 00:04:53;;;;;;;10.00;5.30;;;;;;;20.65;29.78;100907.17;108114;1287;23064;-63
2023/09/30 00:07:18;;;;;;;8.70;4.40;;;;;;;20.63;29.76;100906.35;108123;1288;21985;-59
2023/09/30 00:09:44;;;;;;;8.90;5.10;;;;;;;20.61;29.81;100903.77;108095;1283;21987;-65
2023/09/30 00:12:09;;;;;;;10.60;4.80;;;;;;;20.61;29.89;100903.42;108068;1277;22001;-60
2023/09/30 00:14:37;;;;;;;10.40;4.80;;;;;;;20.60;29.95;100902.03;108126;1288;22000;-65
2023/09/30 00:17:03;;;;;;;11.10;5.10;;;;;;;20.59;29.90;100899.77;108121;1287;21995;-60
2023/09/30 00:19:29;;;;;;;10.50;5.10;;;;;;;20.59;29.96;100897.99;108116;1283;21991;-65
2023/09/30 00:21:54;;;;;;;7.90;5.10;;;;;;;20.59;30.03;100899.23;108070;1287;21994;-65
2023/09/30 00:24:20;;;;;;;11.80;4.90;;;;;;;20.56;30.04;100895.79;108102;1286;21992;-64
2023/09/30 00:26:46;;;;;;;8.50;5.10;;;;;;;20.53;30.07;100893.27;108102;1287;21986;-60
2023/09/30 00:29:11;;;;;;;16.30;5.00;;;;;;;20.53;30.23;100894.54;108140;1276;21985;-65
2023/09/30 00:31:37;;;;;;;11.50;5.30;;;;;;;20.54;30.14;100893.77;108094;1286;21997;-65
2023/09/30 00:34:02;;;;;;;11.80;5.40;;;;;;;20.56;30.24;100895.98;108103;1284;21980;-65
2023/09/30 00:36:28;;;;;;;9.90;5.20;;;;;;;20.57;30.29;100893.95;108115;1280;21987;-65
2023/09/30 00:38:54;;;;;;;15.00;5.50;;;;;;;20.58;30.19;100893.20;108086;1287;22006;-60
2023/09/30 00:41:19;;;;;;;10.20;4.80;;;;;;;20.60;30.18;100893.84;108081;1283;21999;-65
2023/09/30 00:43:48;;;;;;;15.00;5.40;;;;;;;20.61;30.33;100894.33;108098;1287;22009;-66
2023/09/30 00:46:29;;;;;;;10.40;5.10;;;;;;;20.61;30.38;100894.16;108060;1283;22085;-59
2023/09/30 00:48:55;;;;;;;10.60;5.00;;;;;;;20.61;30.44;100895.38;108105;1283;21997;-65
2023/09/30 00:51:22;;;;;;;8.90;5.10;;;;;;;20.62;30.46;100894.25;108103;1288;22005;-65
2023/09/30 00:53:48;;;;;;;9.10;5.00;;;;;;;20.62;30.44;100895.53;108149;1276;21990;-59
2023/09/30 00:56:14;;;;;;;16.30;5.90;;;;;;;20.60;30.52;100896.31;108128;1287;21991;-60
2023/09/30 00:58:39;;;;;;;11.90;5.70;;;;;;;20.59;30.53;100892.63;108092;1288;21995;-66
2023/09/30 01:01:05;;;;;;;10.20;5.20;;;;;;;20.67;30.40;100894.61;104771;1283;1003337;-65
2023/09/30 01:03:30;;;;;;;9.20;5.10;;;;;;;20.64;30.52;100897.02;107891;1288;22000;-65
2023/09/30 01:05:56;;;;;;;9.40;5.70;;;;;;;20.58;30.64;100895.33;107870;1279;22008;-66
2023/09/30 01:08:21;;;;;;;9.80;5.10;;;;;;;20.57;30.66;100898.08;108125;1281;22363;-59
2023/09/30 01:10:48;;;;;;;13.50;5.40;;;;;;;20.55;30.68;100896.54;108091;1287;21992;-65
2023/09/30 01:13:14;;;;;;;12.00;5.80;;;;;;;20.54;30.61;100894.48;107928;1283;21989;-60
2023/09/30 01:15:39;;;;;;;11.90;5.60;;;;;;;20.52;30.79;100892.41;108083;1279;22036;-65
2023/09/30 01:18:05;;;;;;;14.50;6.10;;;;;;;20.50;30.84;100888.92;108105;1283;21995;-60
2023/09/30 01:20:31;;;;;;;10.00;5.30;;;;;;;20.49;30.83;100891.48;108092;1288;21990;-59
2023/09/30 01:22:57;;;;;;;9.40;5.20;;;;;;;20.48;30.83;100889.73;107876;1286;22006;-64
2023/09/30 01:25:23;;;;;;;10.50;5.80;;;;;;;20.48;30.84;100889.93;108085;1279;21986;-61
2023/09/30 01:27:51;;;;;;;11.70;5.30;;;;;;;20.48;30.90;100889.76;108110;1283;21992;-66
2023/09/30 01:30:17;;;;;;;12.50;5.60;;;;;;;20.45;30.96;100889.34;108095;1276;21995;-66
2023/09/30 01:32:44;;;;;;;13.20;5.40;;;;;;;20.43;30.96;100889.42;108123;1277;22003;-59
2023/09/30 01:35:09;;;;;;;14.40;6.10;;;;;;;20.43;31.07;100886.25;108112;1283;21999;-60
2023/09/30 01:37:36;;;;;;;11.90;5.60;;;;;;;20.41;31.08;100884.73;108120;1287;21997;-59
2023/09/30 01:40:03;;;;;;;12.50;5.90;;;;;;;20.39;31.10;100883.40;108056;1288;22000;-59
2023/09/30 01:42:30;;;;;;;9.80;5.40;;;;;;;20.35;31.18;100881.95;108159;1280;22000;-65
2023/09/30 01:44:56;;;;;;;16.60;6.20;;;;;;;20.31;31.24;100882.83;108105;1288;21995;-65
2023/09/30 01:47:22;;;;;;;10.80;5.50;;;;;;;20.30;31.33;100882.02;108103;1287;21992;-60
2023/09/30 01:49:48;;;;;;;11.60;6.00;;;;;;;20.30;31.37;100877.55;108082;1287;22020;-63
2023/09/30 01:52:14;;;;;;;9.20;5.80;;;;;;;20.29;31.36;100874.20;108076;1287;22022;-60
2023/09/30 01:54:40;;;;;;;16.50;5.70;;;;;;;20.29;31.40;100874.75;108140;1287;22093;-59
2023/09/30 01:57:05;;;;;;;12.40;5.90;;;;;;;20.29;31.52;100876.36;108112;1288;22049;-65
2023/09/30 01:59:31;;;;;;;14.90;5.70;;;;;;;20.29;31.42;100872.98;108135;1288;23801;-60
2023/09/30 02:01:56;;;;;;;12.50;5.70;;;;;;;20.30;31.49;100871.48;108090;1283;22001;-59
2023/09/30 02:04:23;;;;;;;13.20;6.10;;;;;;;20.31;31.47;100869.47;108101;1288;21991;-59
2023/09/30 02:06:48;;;;;;;8.60;5.10;;;;;;;20.31;31.62;100868.90;108089;1279;21995;-65
2023/09/30 02:09:14;;;;;;;8.50;5.20;;;;;;;20.31;31.61;100870.90;108099;1287;21988;-65
2023/09/30 02:11:43;;;;;;;9.90;5.20;;;;;;;20.32;31.65;100873.02;108128;1277;21989;-65
2023/09/30 02:14:11;;;;;;;17.60;5.60;;;;;;;20.32;31.62;100872.81;108078;1278;22035;-65
2023/09/30 02:16:38;;;;;;;12.10;5.70;;;;;;;20.31;31.64;100869.83;108103;1283;22772;-59
2023/09/30 02:19:03;;;;;;;12.10;5.90;;;;;;;20.29;31.72;100872.23;108112;1283;22004;-66
2023/09/30 02:21:29;;;;;;;9.70;5.80;;;;;;;20.28;31.74;100876.40;108098;1283;22030;-62
2023/09/30 02:23:54;;;;;;;15.00;6.00;;;;;;;20.28;31.75;100874.25;108108;1288;21990;-60
2023/09/30 02:26:21;;;;;;;12.30;5.80;;;;;;;20.28;31.91;100881.02;108107;1287;22008;-66
2023/09/30 02:28:47;;;;;;;19.70;6.10;;;;;;;20.28;32.00;100877.48;108122;1283;22032;-59
2023/09/30 02:31:13;;;;;;;13.90;5.60;;;;;;;20.26;31.94;100876.66;108107;1280;21992;-65
2023/09/30 02:33:39;;;;;;;14.60;5.30;;;;;;;20.23;32.00;100877.69;108102;1288;22057;-65
2023/09/30 02:36:08;;;;;;;9.10;5.70;;;;;;;20.21;31.99;100882.39;108086;1286;21993;-65
2023/09/30 02:38:36;;;;;;;33.70;7.50;;;;;;;20.20;32.10;100882.06;108095;1283;21990;-60
2023/09/30 02:41:02;;;;;;;11.10;5.80;;;;;;;20.26;32.13;100882.19;108100;1288;21997;-59
2023/09/30 02:43:28;;;;;;;15.60;6.10;;;;;;;20.27;32.09;100882.31;108100;1283;22001;-65
2023/09/30 02:45:54;;;;;;;12.40;5.50;;;;;;;20.26;32.09;100880.92;108080;1287;22003;-60
2023/09/30 02:48:19;;;;;;;9.70;5.90;;;;;;;20.25;32.07;100879.20;108020;1287;22004;-60
2023/09/30 02:50:45;;;;;;;13.50;6.40;;;;;;;20.24;32.18;100879.80;108132;1277;21996;-65
2023/09/30 02:53:12;;;;;;;14.60;6.50;;;;;;;20.23;32.18;100878.94;108084;1288;21987;-60
2023/09/30 02:55:39;;;;;;;13.80;6.20;;;;;;;20.21;32.21;100878.66;108158;1281;22007;-61
2023/09/30 02:58:04;;;;;;;10.00;6.00;;;;;;;20.19;32.28;100883.02;108146;1280;22455;-60
2023/09/30 03:00:32;;;;;;;10.70;5.70;;;;;;;20.18;32.33;100880.05;108078;1288;22018;-60
2023/09/30 03:03:00;;;;;;;16.20;6.20;;;;;;;20.17;32.29;100879.90;108155;1283;21987;-65
2023/09/30 03:05:27;;;;;;;11.70;6.90;;;;;;;20.15;32.39;100876.76;108095;1283;22000;-65
2023/09/30 03:07:52;;;;;;;12.30;5.80;;;;;;;20.14;32.35;100875.95;108177;1288;21999;-64
2023/09/30 03:10:20;;;;;;;13.40;6.50;;;;;;;20.12;32.35;100879.58;108124;1286;22464;-65
2023/09/30 03:12:51;;;;;;;11.20;6.90;;;;;;;20.11;32.51;100881.75;108186;1288;22010;-60
2023/09/30 03:15:17;;;;;;;11.30;6.00;;;;;;;20.10;32.46;100877.00;108169;1277;23761;-60
2023/09/30 03:17:43;;;;;;;15.50;8.10;;;;;;;20.06;32.50;100877.34;108105;1287;21988;-64
2023/09/30 03:20:11;;;;;;;10.90;5.80;;;;;;;20.03;32.47;100875.35;108082;1288;23057;-65
2023/09/30 03:22:42;;;;;;;12.20;6.40;;;;;;;20.00;32.55;100872.63;108190;1282;23076;-59
2023/09/30 03:25:09;;;;;;;12.10;6.50;;;;;;;19.98;32.62;100871.84;108162;1288;21995;-59
2023/09/30 03:27:36;;;;;;;12.80;6.50;;;;;;;19.95;32.66;100871.42;108243;1284;22236;-59
2023/09/30 03:30:03;;;;;;;19.00;6.60;;;;;;;19.92;32.60;100872.79;108139;1286;22012;-59
2023/09/30 03:32:29;;;;;;;12.90;7.10;;;;;;;19.90;32.74;100868.61;107911;1288;22000;-59
2023/09/30 03:34:58;;;;;;;10.60;6.40;;;;;;;19.88;32.76;100868.48;107888;1283;21997;-64
2023/09/30 03:37:26;;;;;;;13.90;7.10;;;;;;;19.89;32.77;100870.79;108181;1288;21992;-63
2023/09/30 03:39:54;;;;;;;11.70;7.10;;;;;;;19.88;32.74;100865.98;108157;1283;22194;-64
2023/09/30 03:42:19;;;;;;;14.30;7.40;;;;;;;19.87;32.80;100866.39;108112;1283;22029;-65
2023/09/30 03:44:45;;;;;;;13.30;6.90;;;;;;;19.84;32.81;100868.30;108143;1287;21990;-65
2023/09/30 03:47:11;;;;;;;10.70;6.70;;;;;;;19.82;32.92;100866.63;108205;1288;21997;-59
2023/09/30 03:49:38;;;;;;;25.60;7.20;;;;;;;19.80;32.94;100864.57;108087;1288;22239;-65
2023/09/30 03:52:04;;;;;;;18.50;7.30;;;;;;;19.79;32.99;100865.84;108079;1288;22114;-65
2023/09/30 03:54:30;;;;;;;13.90;6.50;;;;;;;19.82;33.04;100867.48;108132;1281;21995;-59
2023/09/30 03:56:55;;;;;;;17.90;7.00;;;;;;;19.85;33.02;100868.96;108081;1277;21995;-60
2023/09/30 03:59:21;;;;;;;19.40;6.70;;;;;;;19.89;33.02;100867.21;108144;1288;21997;-59
2023/09/30 04:01:47;;;;;;;18.40;6.90;;;;;;;19.93;33.07;100867.59;108120;1276;21989;-65
2023/09/30 04:04:13;;;;;;;19.30;7.60;;;;;;;19.97;33.06;100868.52;108160;1283;22098;-60
2023/09/30 04:06:39;;;;;;;16.50;7.60;;;;;;;20.01;33.09;100868.86;108306;1280;22005;-60
2023/09/30 04:09:11;;;;;;;17.90;7.00;;;;;;;20.05;33.02;100873.48;108136;1288;21998;-65
2023/09/30 04:11:37;;;;;;;13.50;7.20;;;;;;;20.09;33.03;100875.46;108152;1288;21992;-59
2023/09/30 04:14:04;;;;;;;12.30;6.90;;;;;;;20.12;33.03;100877.25;108126;1280;21995;-61
2023/09/30 04:16:31;;;;;;;17.80;6.70;;;;;;;20.15;33.09;100876.95;108158;1286;21989;-64
2023/09/30 04:18:56;;;;;;;14.10;7.80;;;;;;;20.18;33.12;100878.04;108079;1283;21999;-65
2023/09/30 04:21:22;;;;;;;17.10;7.60;;;;;;;20.22;33.20;100874.34;108135;1287;22002;-65
2023/09/30 04:23:49;;;;;;;33.20;10.60;;;;;;;20.26;33.17;100875.05;108109;1284;21985;-65
2023/09/30 04:26:15;;;;;;;13.90;6.40;;;;;;;20.32;33.20;100872.83;108114;1287;22029;-65
2023/09/30 04:28:40;;;;;;;14.20;6.90;;;;;;;20.38;33.12;100873.61;108080;1280;22003;-59
2023/09/30 04:31:07;;;;;;;13.40;7.70;;;;;;;20.42;33.15;100876.66;108078;1277;21994;-61
2023/09/30 04:33:35;;;;;;;16.40;7.00;;;;;;;20.46;33.13;100874.16;108094;1280;21989;-59
2023/09/30 04:36:02;;;;;;;13.70;7.80;;;;;;;20.51;33.22;100871.61;108121;1280;21988;-62
2023/09/30 04:38:27;;;;;;;18.60;7.40;;;;;;;20.62;33.26;100872.17;108136;1288;21998;-65
2023/09/30 04:40:54;;;;;;;16.30;7.40;;;;;;;20.73;33.15;100875.40;108118;1280;22027;-58
2023/09/30 04:43:23;;;;;;;20.90;7.40;;;;;;;20.79;33.10;100876.22;108095;1283;21988;-58
2023/09/30 04:45:52;;;;;;;16.40;7.60;;;;;;;20.83;33.05;100879.60;108112;1283;22011;-57
2023/09/30 04:48:18;;;;;;;16.20;7.50;;;;;;;20.90;33.13;100875.36;108103;1288;21990;-65
2023/09/30 04:50:43;;;;;;;21.30;7.40;;;;;;;20.98;33.07;100875.53;108088;1283;22001;-60
2023/09/30 04:53:09;;;;;;;23.80;7.70;;;;;;;21.03;33.06;100873.49;108111;1288;21990;-59
2023/09/30 04:55:35;;;;;;;17.80;7.70;;;;;;;21.07;33.02;100875.95;108080;1277;21995;-59
2023/09/30 04:58:00;;;;;;;21.90;7.60;;;;;;;21.09;33.05;100874.27;107831;1279;22027;-64
2023/09/30 05:00:27;;;;;;;17.40;7.30;;;;;;;21.12;33.05;100874.31;108106;1283;22039;-59
2023/09/30 05:02:55;;;;;;;15.60;7.10;;;;;;;21.16;33.07;100876.95;108097;1277;21989;-63
2023/09/30 05:05:21;;;;;;;15.30;7.40;;;;;;;21.22;33.08;100877.92;108143;1280;21981;-59
2023/09/30 05:07:47;;;;;;;12.30;7.90;;;;;;;21.28;33.02;100877.11;107368;1288;1003113;-58
2023/09/30 05:10:15;;;;;;;17.80;7.60;;;;;;;21.34;32.98;100881.23;108109;1284;21999;-59
2023/09/30 05:12:47;;;;;;;16.90;8.10;;;;;;;21.42;32.91;100881.57;108125;1279;21990;-65
2023/09/30 05:15:15;;;;;;;21.40;7.90;;;;;;;21.50;32.91;100881.70;108152;1283;21992;-59
2023/09/30 05:17:43;;;;;;;13.40;7.90;;;;;;;21.59;32.94;100876.81;108191;1276;22029;-64
2023/09/30 05:20:10;;;;;;;14.60;7.00;;;;;;;21.68;32.88;100879.23;108106;1280;23054;-63
2023/09/30 05:22:36;;;;;;;16.00;7.80;;;;;;;21.78;32.90;100873.76;108126;1286;23064;-64
2023/09/30 05:25:02;;;;;;;12.80;7.50;;;;;;;21.88;32.92;100876.42;108118;1286;21995;-63
2023/09/30 05:27:27;;;;;;;13.70;7.10;;;;;;;21.99;32.96;100875.54;108135;1288;22459;-59
2023/09/30 05:29:54;;;;;;;13.80;7.20;;;;;;;22.10;32.83;100879.23;108101;1283;22459;-58
2023/09/30 05:32:21;;;;;;;13.00;7.70;;;;;;;22.22;32.87;100875.74;108138;1276;21993;-58
2023/09/30 05:34:48;;;;;;;10.90;7.00;;;;;;;22.34;32.71;100878.31;108188;1280;21991;-64
2023/09/30 05:37:13;;;;;;;16.10;7.60;;;;;;;22.47;32.61;100879.63;108144;1287;22454;-64
2023/09/30 05:39:40;;;;;;;14.50;7.20;;;;;;;22.60;32.55;100882.15;108140;1283;21989;-62
2023/09/30 05:42:06;;;;;;;13.30;7.00;;;;;;;22.74;32.53;100881.74;108098;1286;21990;-63
2023/09/30 05:44:32;;;;;;;14.90;7.50;;;;;;;22.88;32.63;100883.09;108084;1282;22743;-63
2023/09/30 05:46:59;;;;;;;10.30;6.50;;;;;;;23.03;32.55;100879.22;108135;1283;22013;-64
2023/09/30 05:49:25;;;;;;;15.70;6.40;;;;;;;23.19;32.33;100883.67;108112;1283;21990;-58
2023/09/30 05:51:51;;;;;;;10.40;6.50;;;;;;;23.36;32.30;100883.13;108103;1286;21949;-63
2023/09/30 05:54:17;;;;;;;13.90;6.80;;;;;;;23.53;32.18;100886.05;108125;1288;22008;-59
2023/09/30 05:56:44;;;;;;;11.40;6.50;;;;;;;23.70;32.01;100881.52;108105;1287;22000;-59
2023/09/30 05:59:10;;;;;;;14.00;6.30;;;;;;;23.86;31.94;100883.04;108123;1288;21988;-58
2023/09/30 06:01:36;;;;;;;12.50;6.00;;;;;;;24.04;31.79;100889.14;108082;1283;22003;-58
2023/09/30 06:04:01;;;;;;;14.70;6.40;;;;;;;24.21;31.71;100889.94;108134;1288;22044;-64
2023/09/30 06:06:30;;;;;;;11.40;6.80;;;;;;;24.37;31.69;100887.89;108138;1283;21987;-59
2023/09/30 06:08:59;;;;;;;11.60;6.20;;;;;;;24.52;31.57;100890.50;108173;1283;22001;-63
2023/09/30 06:11:27;;;;;;;13.80;6.40;;;;;;;24.70;31.50;100889.79;108143;1280;22001;-59
2023/09/30 06:13:54;;;;;;;14.50;6.70;;;;;;;24.87;31.32;100889.05;108121;1288;21990;-64
2023/09/30 06:16:20;;;;;;;14.50;6.00;;;;;;;25.07;31.17;100894.46;108084;1283;21990;-64
2023/09/30 06:18:46;;;;;;;13.20;6.50;;;;;;;25.26;31.13;100895.35;108159;1288;22463;-63
2023/09/30 06:21:16;;;;;;;12.60;6.90;;;;;;;25.46;30.92;100893.67;108087;1280;22454;-59
2023/09/30 06:23:43;;;;;;;15.30;6.90;;;;;;;25.61;30.70;100893.23;108108;1287;22112;-63
2023/09/30 06:26:09;;;;;;;12.30;6.50;;;;;;;25.73;30.57;100891.87;108173;1288;21998;-64
2023/09/30 06:28:40;;;;;;;10.70;6.10;;;;;;;25.84;30.55;100887.91;108111;1283;24393;-59
2023/09/30 06:31:07;;;;;;;15.90;6.10;;;;;;;26.00;30.60;100889.30;108112;1287;21989;-59
2023/09/30 06:33:38;;;;;;;12.00;6.70;;;;;;;26.26;30.45;100886.08;108204;1287;22056;-59
2023/09/30 06:36:10;;;;;;;;;;;;;;;26.51;30.21;100886.02;108158;1283;21948;-62
2023/09/30 06:38:37;;;;;;;9.70;5.90;;;;;;;26.74;30.38;100887.73;108127;1287;21994;-59
2023/09/30 06:41:04;;;;;;;12.30;6.10;;;;;;;27.01;30.18;100885.77;108134;1286;21990;-64
2023/09/30 06:43:29;;;;;;;11.10;6.00;;;;;;;27.24;29.88;100882.54;108178;1283;21990;-59
2023/09/30 06:45:55;;;;;;;10.90;6.20;;;;;;;27.42;29.79;100883.66;108105;1280;22001;-65
2023/09/30 06:48:21;;;;;;;12.20;6.30;;;;;;;27.64;29.66;100881.16;108112;1280;22031;-59
2023/09/30 06:50:48;;;;;;;10.50;5.90;;;;;;;27.85;29.45;100882.23;108116;1283;22046;-64
2023/09/30 06:53:17;;;;;;;12.50;6.00;;;;;;;28.06;29.49;100883.86;108161;1288;21987;-59
2023/09/30 06:55:43;;;;;;;10.70;6.30;;;;;;;28.29;29.36;100884.30;108155;1284;21998;-64
2023/09/30 06:58:10;;;;;;;13.60;6.10;;;;;;;28.50;29.09;100878.84;108134;1288;22063;-59
2023/09/30 07:00:37;;;;;;;13.40;6.50;;;;;;;28.58;28.95;100876.73;108147;1287;21985;-58
2023/09/30 07:03:03;;;;;;;9.20;5.50;;;;;;;28.64;28.86;100876.46;108196;1282;21984;-59
2023/09/30 07:05:29;;;;;;;13.00;6.00;;;;;;;28.75;28.72;100874.69;108136;1286;21979;-65
2023/09/30 07:07:54;;;;;;;11.30;6.10;;;;;;;28.85;28.85;100873.38;108132;1283;21994;-64
2023/09/30 07:10:20;;;;;;;15.80;5.60;;;;;;;29.02;28.52;100870.16;108126;1277;21987;-59
2023/09/30 07:12:46;;;;;;;12.40;6.00;;;;;;;29.12;28.28;100871.30;108109;1287;21979;-64
2023/09/30 07:15:11;;;;;;;16.10;6.40;;;;;;;29.20;28.23;100870.85;108076;1283;21991;-63
2023/09/30 07:17:37;;;;;;;10.90;5.60;;;;;;;29.33;28.21;100870.14;108115;1288;21995;-59
2023/09/30 07:20:05;;;;;;;9.80;5.70;;;;;;;29.47;28.25;100869.63;108110;1284;21987;-64
2023/09/30 07:22:31;;;;;;;10.10;5.60;;;;;;;29.70;28.11;100865.96;107951;1279;22009;-59
2023/09/30 07:24:57;;;;;;;10.00;5.30;;;;;;;29.92;27.88;100863.12;108157;1283;22030;-64
2023/09/30 07:27:24;;;;;;;10.50;5.10;;;;;;;30.11;27.80;100864.56;108193;1288;21997;-64
2023/09/30 07:29:49;;;;;;;8.50;5.60;;;;;;;30.32;27.65;100860.09;108159;1288;21998;-64
2023/09/30 07:32:16;;;;;;;11.70;6.40;;;;;;;30.44;27.12;100860.66;108102;1277;21994;-64
2023/09/30 07:34:42;;;;;;;16.00;5.60;;;;;;;30.52;27.39;100866.42;108127;1288;22012;-60
2023/09/30 07:37:07;;;;;;;9.40;5.00;;;;;;;30.73;27.56;100862.44;108116;1280;21987;-59
2023/09/30 07:39:34;;;;;;;14.00;5.50;;;;;;;30.95;27.30;100865.84;108149;1276;21988;-63
2023/09/30 07:42:00;;;;;;;10.10;5.40;;;;;;;31.16;27.13;100866.18;108167;1288;22017;-64
2023/09/30 07:44:26;;;;;;;14.10;5.50;;;;;;;31.31;26.84;100865.58;108113;1279;22004;-59
2023/09/30 07:46:53;;;;;;;15.70;5.50;;;;;;;31.47;26.77;100866.74;108132;1288;21995;-59
2023/09/30 07:49:18;;;;;;;11.50;5.00;;;;;;;31.58;26.60;100864.64;108143;1288;23767;-59
2023/09/30 07:51:46;;;;;;;8.70;5.10;;;;;;;31.70;26.60;100864.23;108124;1283;22047;-59
2023/09/30 07:54:12;;;;;;;12.10;5.20;;;;;;;31.92;26.51;100862.01;108171;1287;21995;-63
2023/09/30 07:56:38;;;;;;;13.50;5.20;;;;;;;32.13;26.30;100860.39;108208;1288;22090;-64
2023/09/30 07:59:05;;;;;;;9.40;4.60;;;;;;;32.25;26.28;100863.95;108188;1287;21997;-60
2023/09/30 08:01:31;;;;;;;11.40;4.50;;;;;;;32.42;26.08;100865.27;108150;1287;22179;-64
2023/09/30 08:03:57;;;;;;;10.40;4.50;;;;;;;32.56;26.05;100863.53;108144;1286;21984;-59
2023/09/30 08:06:23;;;;;;;8.10;4.50;;;;;;;32.79;25.93;100863.16;108124;1283;22024;-65
2023/09/30 08:08:49;;;;;;;8.40;4.20;;;;;;;33.00;25.80;100861.92;108129;1288;21990;-59
2023/09/30 08:11:15;;;;;;;10.70;4.80;;;;;;;33.21;25.56;100861.34;108139;1288;22238;-64
2023/09/30 08:13:41;;;;;;;10.30;4.60;;;;;;;33.25;25.33;100862.73;108134;1288;21997;-59
2023/09/30 08:16:07;;;;;;;9.20;4.60;;;;;;;33.22;25.26;100862.80;108124;1283;21989;-64
2023/09/30 08:18:32;;;;;;;10.00;4.60;;;;;;;33.16;25.02;100863.26;108120;1280;21988;-64
2023/09/30 08:20:58;;;;;;;14.20;4.70;;;;;;;33.10;25.07;100861.30;108137;1288;21993;-62
2023/09/30 08:23:24;;;;;;;20.10;5.00;;;;;;;33.22;25.11;100859.98;108167;1288;21990;-58
2023/09/30 08:25:49;;;;;;;15.80;5.30;;;;;;;33.29;25.00;100862.71;108102;1283;21993;-62
2023/09/30 08:28:15;;;;;;;17.90;5.30;;;;;;;33.42;25.13;100860.45;108091;1286;23804;-58
2023/09/30 08:30:41;;;;;;;12.20;4.70;;;;;;;33.69;25.00;100859.06;108151;1280;21997;-65
2023/09/30 08:33:07;;;;;;;12.10;4.30;;;;;;;34.02;24.92;100849.10;108054;1283;22006;-65
2023/09/30 08:35:39;;;;;;;10.00;4.50;;;;;;;34.21;24.52;100849.80;108072;1277;21992;-65
2023/09/30 08:38:05;;;;;;;11.70;4.00;;;;;;;34.28;24.40;100848.36;108108;1283;21991;-56
2023/09/30 08:40:31;;;;;;;10.40;4.60;;;;;;;34.39;24.46;100847.08;108078;1286;21996;-57
2023/09/30 08:42:56;;;;;;;9.80;5.00;;;;;;;34.59;24.26;100842.94;108096;1287;21993;-63
2023/09/30 08:45:22;;;;;;;16.30;4.90;;;;;;;34.82;24.34;100837.12;107666;1287;21987;-63
2023/09/30 08:47:47;;;;;;;11.10;4.30;;;;;;;35.07;24.12;100837.23;108107;1287;22002;-59
2023/09/30 08:50:13;;;;;;;9.00;4.20;;;;;;;35.17;23.84;100834.92;107878;1288;21973;-65
2023/09/30 08:52:40;;;;;;;7.90;3.60;;;;;;;35.27;24.06;100834.89;108111;1288;21996;-65
2023/09/30 08:55:07;;;;;;;10.40;4.60;;;;;;;35.44;23.59;100838.46;108160;1286;21995;-60
2023/09/30 08:57:33;;;;;;;9.50;3.90;;;;;;;35.46;23.31;100835.48;108144;1277;21960;-63
2023/09/30 08:59:58;;;;;;;6.00;3.60;;;;;;;35.55;23.32;100828.71;108105;1287;21989;-61
2023/09/30 09:02:24;;;;;;;9.70;4.60;;;;;;;35.65;23.34;100829.20;107677;1288;21993;-63
2023/09/30 09:04:50;;;;;;;8.60;3.80;;;;;;;35.77;23.28;100827.89;108119;1277;22048;-63
2023/09/30 09:07:16;;;;;;;10.00;3.80;;;;;;;35.98;23.02;100821.31;108143;1288;21999;-63
2023/09/30 09:09:42;;;;;;;7.30;3.50;;;;;;;36.14;22.80;100820.59;108115;1288;22002;-63
2023/09/30 09:12:19;;;;;;;5.90;3.70;;;;;;;36.17;22.94;100821.19;107892;1288;21997;-63
2023/09/30 09:14:46;;;;;;;6.30;3.70;;;;;;;36.30;22.70;100817.94;108140;1288;22000;-60
2023/09/30 09:17:11;;;;;;;7.80;3.70;;;;;;;36.48;22.61;100812.92;108102;1288;22000;-59
2023/09/30 09:19:37;;;;;;;7.70;3.50;;;;;;;36.66;22.38;100820.14;108099;1283;23666;-63
2023/09/30 09:22:06;;;;;;;6.60;4.00;;;;;;;36.75;22.11;100817.27;108143;1288;22383;-63
2023/09/30 09:24:37;;;;;;;8.20;3.80;;;;;;;36.56;22.04;100813.75;108151;1287;21966;-64
2023/09/30 09:27:06;;;;;;;5.80;3.30;;;;;;;36.40;22.13;100812.00;108108;1282;23719;-59
2023/09/30 09:29:33;;;;;;;6.10;3.20;;;;;;;36.47;22.01;100810.61;108161;1287;22032;-63
2023/09/30 09:32:12;;;;;;;9.20;3.30;;;;;;;36.51;22.10;100801.07;108220;1287;21993;-63
2023/09/30 09:34:43;;;;;;;5.80;3.50;;;;;;;36.60;21.93;100795.45;108157;1280;21995;-59
2023/09/30 09:37:15;;;;;;;7.40;3.40;;;;;;;36.70;21.69;100794.28;108151;1288;22015;-64
2023/09/30 09:39:49;;;;;;;6.60;3.30;;;;;;;36.81;21.62;100796.08;108093;1286;21998;-65
2023/09/30 09:42:32;;;;;;;5.50;3.00;;;;;;;36.95;21.59;100795.92;108102;1288;21989;-60
2023/09/30 09:45:00;;;;;;;7.00;3.20;;;;;;;37.15;21.61;100787.48;108123;1286;22030;-64
2023/09/30 09:47:26;;;;;;;8.50;3.70;;;;;;;37.33;21.62;100784.35;108152;1280;21990;-64
2023/09/30 09:49:52;;;;;;;9.60;3.50;;;;;;;37.43;21.36;100784.88;109883;1288;22103;-61
2023/09/30 09:52:19;;;;;;;6.40;3.40;;;;;;;37.54;21.33;100787.26;108124;1283;21995;-63
2023/09/30 09:54:46;;;;;;;7.90;3.60;;;;;;;37.64;21.14;100787.19;108140;1283;22004;-60
2023/09/30 09:57:11;;;;;;;6.40;3.20;;;;;;;37.62;21.12;100784.81;107870;1283;21996;-59
2023/09/30 09:59:39;;;;;;;5.80;3.50;;;;;;;37.70;21.18;100780.54;108108;1288;21999;-59
2023/09/30 10:02:15;;;;;;;6.80;3.20;;;;;;;37.86;21.08;100775.94;107863;1284;22006;-59
2023/09/30 10:04:45;;;;;;;7.80;3.60;;;;;;;38.05;20.98;100775.04;108141;1283;21990;-63
2023/09/30 10:07:27;;;;;;;8.20;3.60;;;;;;;38.24;20.92;100772.94;108166;1277;22285;-63
2023/09/30 10:09:53;;;;;;;7.90;3.30;;;;;;;38.43;20.82;100769.64;108132;1280;21993;-59
2023/09/30 10:12:19;;;;;;;5.20;3.00;;;;;;;38.58;20.58;100769.65;108107;1288;21996;-64
2023/09/30 10:14:45;;;;;;;8.60;3.10;;;;;;;38.70;20.53;100771.46;108118;1288;22052;-63
2023/09/30 10:17:11;;;;;;;7.50;3.30;;;;;;;38.77;20.45;100769.08;107850;1288;21994;-63
2023/09/30 10:20:02;;;;;;;6.20;3.00;;;;;;;38.85;20.42;100766.80;107805;1288;21988;-59
2023/09/30 10:22:28;;;;;;;5.00;2.70;;;;;;;38.92;20.29;100758.33;107864;1282;21996;-64
2023/09/30 10:24:55;;;;;;;11.60;3.70;;;;;;;39.00;20.22;100757.59;107949;1283;21998;-59
2023/09/30 10:27:24;;;;;;;9.40;3.30;;;;;;;39.07;20.14;100754.28;107999;1286;21998;-63
2023/09/30 10:30:02;;;;;;;7.40;3.20;;;;;;;39.10;20.13;100754.01;108023;1288;22033;-59
2023/09/30 10:33:02;;;;;;;10.60;3.10;;;;;;;39.19;20.10;100750.35;108009;1288;22164;-59
2023/09/30 10:35:27;;;;;;;7.30;3.30;;;;;;;39.32;19.89;100751.23;107991;1286;21991;-64
2023/09/30 10:38:22;;;;;;;9.90;2.80;;;;;;;39.41;19.94;100748.80;108010;1281;21997;-63
2023/09/30 10:40:48;;;;;;;6.70;3.00;;;;;;;39.49;19.71;100744.12;108011;1288;22458;-64
2023/09/30 10:43:32;;;;;;;7.80;3.20;;;;;;;39.57;19.56;100745.77;108063;1283;23721;-64
2023/09/30 10:45:59;;;;;;;7.00;3.20;;;;;;;39.64;19.42;100739.24;108014;1283;22014;-59
2023/09/30 10:48:24;;;;;;;6.30;2.90;;;;;;;39.67;19.22;100737.44;108010;1283;22021;-59
2023/09/30 10:50:51;;;;;;;6.90;3.40;;;;;;;39.70;19.16;100737.08;107967;1288;21999;-59
2023/09/30 10:53:17;;;;;;;7.10;3.00;;;;;;;39.74;19.21;100736.97;108009;1283;21992;-60
2023/09/30 10:55:46;;;;;;;6.50;2.80;;;;;;;39.78;19.06;100740.86;107989;1288;22234;-60
2023/09/30 10:58:15;;;;;;;7.00;3.10;;;;;;;39.80;18.86;100732.66;108032;1280;21963;-64
2023/09/30 11:00:53;;;;;;;7.10;3.00;;;;;;;39.79;19.14;100733.45;107998;1288;21993;-63
2023/09/30 11:03:22;;;;;;;8.40;3.00;;;;;;;39.81;19.01;100732.20;107940;1286;22015;-63
2023/09/30 11:05:48;;;;;;;5.90;2.90;;;;;;;39.83;18.70;100730.23;108000;1280;22016;-59
2023/09/30 11:08:15;;;;;;;7.90;3.20;;;;;;;39.82;18.69;100730.85;108022;1280;21989;-60
2023/09/30 11:10:48;;;;;;;6.70;2.80;;;;;;;39.81;18.88;100727.49;107820;1283;22004;-63